sensor_id;sensor_type;location;lat;lon;timestamp;P1;durP1;ratioP1;P2;durP2;ratioP2
20870;SDS011;10595;51.218;3.452;2023-02-23T00:01:54;108.67;;;42.60;;
20870;SDS011;10595;51.218;3.452;2023-02-23T00:04:21;101.27;;;42.43;;
20870;SDS011;10595;51.218;3.452;2023-02-23T00:06:47;109.33;;;44.20;;
20870;SDS011;10595;51.218;3.452;2023-02-23T00:09:16;120.53;;;45.67;;
20870;SDS011;10595;51.218;3.452;2023-02-23T00:11:49;98.13;;;41.53;;
20870;SDS011;10595;51.218;3.452;2023-02-23T00:14:15;101.33;;;42.57;;
20870;SDS011;10595;51.218;3.452;2023-02-23T00:16:41;107.83;;;43.67;;
20870;SDS011;10595;51.218;3.452;2023-02-23T00:19:10;90.20;;;40.53;;
20870;SDS011;10595;51.218;3.452;2023-02-23T00:21:38;95.43;;;39.30;;
20870;SDS011;10595;51.218;3.452;2023-02-23T00:24:08;100.37;;;42.13;;
20870;SDS011;10595;51.218;3.452;2023-02-23T00:26:36;93.50;;;40.70;;
20870;SDS011;10595;51.218;3.452;2023-02-23T00:29:03;88.27;;;40.13;;
20870;SDS011;10595;51.218;3.452;2023-02-23T00:31:30;96.33;;;40.30;;
20870;SDS011;10595;51.218;3.452;2023-02-23T00:33:57;93.40;;;41.73;;
20870;SDS011;10595;51.218;3.452;2023-02-23T00:36:25;110.37;;;44.43;;
20870;SDS011;10595;51.218;3.452;2023-02-23T00:38:52;93.80;;;41.60;;
20870;SDS011;10595;51.218;3.452;2023-02-23T00:41:18;101.57;;;43.53;;
20870;SDS011;10595;51.218;3.452;2023-02-23T00:43:46;94.63;;;42.73;;
20870;SDS011;10595;51.218;3.452;2023-02-23T00:46:16;95.23;;;42.33;;
20870;SDS011;10595;51.218;3.452;2023-02-23T00:48:43;92.90;;;41.00;;
20870;SDS011;10595;51.218;3.452;2023-02-23T00:51:10;89.27;;;39.97;;
20870;SDS011;10595;51.218;3.452;2023-02-23T00:53:36;91.43;;;39.73;;
20870;SDS011;10595;51.218;3.452;2023-02-23T00:56:06;95.97;;;40.57;;
20870;SDS011;10595;51.218;3.452;2023-02-23T00:58:32;92.63;;;39.63;;
20870;SDS011;10595;51.218;3.452;2023-02-23T01:00:58;91.93;;;41.57;;
20870;SDS011;10595;51.218;3.452;2023-02-23T01:03:24;95.97;;;40.33;;
20870;SDS011;10595;51.218;3.452;2023-02-23T01:05:50;84.43;;;39.13;;
20870;SDS011;10595;51.218;3.452;2023-02-23T01:08:17;103.80;;;41.70;;
20870;SDS011;10595;51.218;3.452;2023-02-23T01:10:43;102.07;;;40.93;;
20870;SDS011;10595;51.218;3.452;2023-02-23T01:13:17;87.00;;;39.50;;
20870;SDS011;10595;51.218;3.452;2023-02-23T01:15:43;91.27;;;40.47;;
20870;SDS011;10595;51.218;3.452;2023-02-23T01:18:09;91.53;;;41.77;;
20870;SDS011;10595;51.218;3.452;2023-02-23T01:20:36;91.90;;;40.10;;
20870;SDS011;10595;51.218;3.452;2023-02-23T01:23:02;93.30;;;41.60;;
20870;SDS011;10595;51.218;3.452;2023-02-23T01:25:28;92.40;;;40.63;;
20870;SDS011;10595;51.218;3.452;2023-02-23T01:27:55;88.93;;;38.77;;
20870;SDS011;10595;51.218;3.452;2023-02-23T01:30:21;85.13;;;38.60;;
20870;SDS011;10595;51.218;3.452;2023-02-23T01:32:47;90.63;;;39.80;;
20870;SDS011;10595;51.218;3.452;2023-02-23T01:35:13;87.73;;;40.33;;
20870;SDS011;10595;51.218;3.452;2023-02-23T01:37:40;99.10;;;42.03;;
20870;SDS011;10595;51.218;3.452;2023-02-23T01:40:07;80.90;;;37.83;;
20870;SDS011;10595;51.218;3.452;2023-02-23T01:42:53;95.93;;;40.40;;
20870;SDS011;10595;51.218;3.452;2023-02-23T01:45:30;88.40;;;39.60;;
20870;SDS011;10595;51.218;3.452;2023-02-23T01:47:59;83.23;;;38.17;;
20870;SDS011;10595;51.218;3.452;2023-02-23T01:50:28;93.57;;;38.60;;
20870;SDS011;10595;51.218;3.452;2023-02-23T01:52:55;89.70;;;40.43;;
20870;SDS011;10595;51.218;3.452;2023-02-23T01:55:23;90.43;;;39.60;;
20870;SDS011;10595;51.218;3.452;2023-02-23T01:57:55;99.53;;;42.60;;
20870;SDS011;10595;51.218;3.452;2023-02-23T02:00:23;95.10;;;41.97;;
20870;SDS011;10595;51.218;3.452;2023-02-23T02:02:51;103.53;;;41.67;;
20870;SDS011;10595;51.218;3.452;2023-02-23T02:05:17;107.33;;;41.87;;
20870;SDS011;10595;51.218;3.452;2023-02-23T02:07:45;84.73;;;37.57;;
20870;SDS011;10595;51.218;3.452;2023-02-23T02:10:11;81.13;;;37.43;;
20870;SDS011;10595;51.218;3.452;2023-02-23T02:12:38;130.43;;;43.23;;
20870;SDS011;10595;51.218;3.452;2023-02-23T02:15:05;83.00;;;38.27;;
20870;SDS011;10595;51.218;3.452;2023-02-23T02:20:17;101.47;;;42.40;;
20870;SDS011;10595;51.218;3.452;2023-02-23T02:23:44;95.33;;;39.33;;
20870;SDS011;10595;51.218;3.452;2023-02-23T02:46:25;87.77;;;37.53;;
20870;SDS011;10595;51.218;3.452;2023-02-23T02:49:12;84.73;;;36.97;;
20870;SDS011;10595;51.218;3.452;2023-02-23T02:56:35;74.23;;;35.20;;
20870;SDS011;10595;51.218;3.452;2023-02-23T02:59:06;90.93;;;38.50;;
20870;SDS011;10595;51.218;3.452;2023-02-23T03:01:51;109.37;;;38.70;;
20870;SDS011;10595;51.218;3.452;2023-02-23T03:04:35;85.40;;;38.50;;
20870;SDS011;10595;51.218;3.452;2023-02-23T03:07:25;90.27;;;38.73;;
20870;SDS011;10595;51.218;3.452;2023-02-23T03:25:34;111.23;;;44.90;;
20870;SDS011;10595;51.218;3.452;2023-02-23T03:28:26;101.67;;;43.53;;
20870;SDS011;10595;51.218;3.452;2023-02-23T03:31:57;102.50;;;43.37;;
20870;SDS011;10595;51.218;3.452;2023-02-23T03:34:27;101.70;;;43.17;;
20870;SDS011;10595;51.218;3.452;2023-02-23T03:37:16;102.37;;;43.77;;
20870;SDS011;10595;51.218;3.452;2023-02-23T03:40:10;107.70;;;43.57;;
20870;SDS011;10595;51.218;3.452;2023-02-23T03:42:56;99.53;;;43.23;;
20870;SDS011;10595;51.218;3.452;2023-02-23T03:45:43;101.83;;;43.60;;
20870;SDS011;10595;51.218;3.452;2023-02-23T03:48:29;95.07;;;43.27;;
20870;SDS011;10595;51.218;3.452;2023-02-23T03:51:15;99.33;;;42.97;;
20870;SDS011;10595;51.218;3.452;2023-02-23T03:54:12;95.33;;;43.17;;
20870;SDS011;10595;51.218;3.452;2023-02-23T03:57:00;98.07;;;42.87;;
20870;SDS011;10595;51.218;3.452;2023-02-23T03:59:47;94.20;;;42.80;;
20870;SDS011;10595;51.218;3.452;2023-02-23T04:02:33;92.10;;;40.23;;
20870;SDS011;10595;51.218;3.452;2023-02-23T04:05:19;90.33;;;40.03;;
20870;SDS011;10595;51.218;3.452;2023-02-23T04:08:06;86.73;;;39.53;;
20870;SDS011;10595;51.218;3.452;2023-02-23T04:11:04;94.37;;;41.30;;
20870;SDS011;10595;51.218;3.452;2023-02-23T04:13:56;96.00;;;42.10;;
20870;SDS011;10595;51.218;3.452;2023-02-23T04:16:23;92.10;;;42.10;;
20870;SDS011;10595;51.218;3.452;2023-02-23T04:18:49;91.57;;;41.23;;
20870;SDS011;10595;51.218;3.452;2023-02-23T04:21:15;95.30;;;41.73;;
20870;SDS011;10595;51.218;3.452;2023-02-23T04:23:41;87.03;;;41.37;;
20870;SDS011;10595;51.218;3.452;2023-02-23T04:26:07;91.13;;;41.90;;
20870;SDS011;10595;51.218;3.452;2023-02-23T04:28:33;87.23;;;39.60;;
20870;SDS011;10595;51.218;3.452;2023-02-23T04:30:59;144.67;;;46.77;;
20870;SDS011;10595;51.218;3.452;2023-02-23T04:33:26;92.67;;;41.30;;
20870;SDS011;10595;51.218;3.452;2023-02-23T04:35:52;96.27;;;41.77;;
20870;SDS011;10595;51.218;3.452;2023-02-23T04:38:19;93.10;;;41.63;;
20870;SDS011;10595;51.218;3.452;2023-02-23T04:40:45;90.87;;;40.50;;
20870;SDS011;10595;51.218;3.452;2023-02-23T04:43:11;88.50;;;39.77;;
20870;SDS011;10595;51.218;3.452;2023-02-23T04:45:37;91.03;;;41.07;;
20870;SDS011;10595;51.218;3.452;2023-02-23T04:48:03;117.07;;;42.57;;
20870;SDS011;10595;51.218;3.452;2023-02-23T04:50:29;162.47;;;47.17;;
20870;SDS011;10595;51.218;3.452;2023-02-23T04:52:55;224.37;;;83.53;;
20870;SDS011;10595;51.218;3.452;2023-02-23T04:55:22;126.23;;;47.87;;
20870;SDS011;10595;51.218;3.452;2023-02-23T04:57:49;118.63;;;45.87;;
20870;SDS011;10595;51.218;3.452;2023-02-23T05:00:16;101.30;;;44.77;;
20870;SDS011;10595;51.218;3.452;2023-02-23T05:02:42;100.27;;;43.07;;
20870;SDS011;10595;51.218;3.452;2023-02-23T05:05:08;116.57;;;45.83;;
20870;SDS011;10595;51.218;3.452;2023-02-23T05:07:35;92.07;;;41.30;;
20870;SDS011;10595;51.218;3.452;2023-02-23T05:10:01;93.00;;;42.30;;
20870;SDS011;10595;51.218;3.452;2023-02-23T05:12:28;101.60;;;45.17;;
20870;SDS011;10595;51.218;3.452;2023-02-23T05:14:54;97.87;;;42.90;;
20870;SDS011;10595;51.218;3.452;2023-02-23T05:17:20;96.77;;;42.00;;
20870;SDS011;10595;51.218;3.452;2023-02-23T05:19:46;111.30;;;43.40;;
20870;SDS011;10595;51.218;3.452;2023-02-23T05:22:12;123.00;;;46.30;;
20870;SDS011;10595;51.218;3.452;2023-02-23T05:24:39;101.03;;;44.07;;
20870;SDS011;10595;51.218;3.452;2023-02-23T05:27:08;128.97;;;47.17;;
20870;SDS011;10595;51.218;3.452;2023-02-23T05:29:34;106.13;;;43.90;;
20870;SDS011;10595;51.218;3.452;2023-02-23T05:32:01;98.43;;;44.77;;
20870;SDS011;10595;51.218;3.452;2023-02-23T05:34:27;109.47;;;45.27;;
20870;SDS011;10595;51.218;3.452;2023-02-23T05:36:53;112.80;;;46.10;;
20870;SDS011;10595;51.218;3.452;2023-02-23T05:39:19;108.00;;;45.53;;
20870;SDS011;10595;51.218;3.452;2023-02-23T05:41:45;112.20;;;46.13;;
20870;SDS011;10595;51.218;3.452;2023-02-23T05:44:11;101.17;;;44.07;;
20870;SDS011;10595;51.218;3.452;2023-02-23T05:46:37;103.23;;;46.17;;
20870;SDS011;10595;51.218;3.452;2023-02-23T05:49:03;104.77;;;45.90;;
20870;SDS011;10595;51.218;3.452;2023-02-23T05:51:30;111.27;;;45.97;;
20870;SDS011;10595;51.218;3.452;2023-02-23T05:53:57;126.47;;;47.33;;
20870;SDS011;10595;51.218;3.452;2023-02-23T05:56:25;103.10;;;43.43;;
20870;SDS011;10595;51.218;3.452;2023-02-23T05:58:55;141.03;;;48.90;;
20870;SDS011;10595;51.218;3.452;2023-02-23T06:01:22;143.33;;;48.97;;
20870;SDS011;10595;51.218;3.452;2023-02-23T06:03:49;104.77;;;44.37;;
20870;SDS011;10595;51.218;3.452;2023-02-23T06:06:15;102.83;;;44.17;;
20870;SDS011;10595;51.218;3.452;2023-02-23T06:08:42;91.13;;;40.13;;
20870;SDS011;10595;51.218;3.452;2023-02-23T06:11:08;97.20;;;42.80;;
20870;SDS011;10595;51.218;3.452;2023-02-23T06:13:34;84.33;;;40.53;;
20870;SDS011;10595;51.218;3.452;2023-02-23T06:16:00;101.90;;;44.63;;
20870;SDS011;10595;51.218;3.452;2023-02-23T06:18:27;97.27;;;43.40;;
20870;SDS011;10595;51.218;3.452;2023-02-23T06:20:53;97.60;;;43.33;;
20870;SDS011;10595;51.218;3.452;2023-02-23T06:23:19;94.43;;;44.20;;
20870;SDS011;10595;51.218;3.452;2023-02-23T06:25:46;96.07;;;41.87;;
20870;SDS011;10595;51.218;3.452;2023-02-23T06:28:12;112.10;;;44.57;;
20870;SDS011;10595;51.218;3.452;2023-02-23T06:30:39;120.40;;;47.43;;
20870;SDS011;10595;51.218;3.452;2023-02-23T06:33:05;115.60;;;45.40;;
20870;SDS011;10595;51.218;3.452;2023-02-23T06:35:32;113.43;;;44.50;;
20870;SDS011;10595;51.218;3.452;2023-02-23T06:37:58;105.33;;;44.73;;
20870;SDS011;10595;51.218;3.452;2023-02-23T06:40:25;116.63;;;45.77;;
20870;SDS011;10595;51.218;3.452;2023-02-23T06:42:51;106.33;;;46.00;;
20870;SDS011;10595;51.218;3.452;2023-02-23T06:45:17;107.90;;;45.37;;
20870;SDS011;10595;51.218;3.452;2023-02-23T06:47:43;100.70;;;43.43;;
20870;SDS011;10595;51.218;3.452;2023-02-23T06:50:10;99.73;;;43.20;;
20870;SDS011;10595;51.218;3.452;2023-02-23T06:52:36;101.17;;;45.73;;
20870;SDS011;10595;51.218;3.452;2023-02-23T06:55:02;116.40;;;47.30;;
20870;SDS011;10595;51.218;3.452;2023-02-23T06:57:28;112.43;;;44.27;;
20870;SDS011;10595;51.218;3.452;2023-02-23T06:59:54;107.70;;;44.93;;
20870;SDS011;10595;51.218;3.452;2023-02-23T07:02:20;118.70;;;46.50;;
20870;SDS011;10595;51.218;3.452;2023-02-23T07:04:47;104.33;;;43.40;;
20870;SDS011;10595;51.218;3.452;2023-02-23T07:07:13;116.23;;;44.23;;
20870;SDS011;10595;51.218;3.452;2023-02-23T07:09:39;128.10;;;45.67;;
20870;SDS011;10595;51.218;3.452;2023-02-23T07:12:06;124.63;;;46.97;;
20870;SDS011;10595;51.218;3.452;2023-02-23T07:14:32;140.33;;;49.27;;
20870;SDS011;10595;51.218;3.452;2023-02-23T07:16:58;145.97;;;48.63;;
20870;SDS011;10595;51.218;3.452;2023-02-23T07:19:25;156.37;;;48.37;;
20870;SDS011;10595;51.218;3.452;2023-02-23T07:21:51;143.93;;;49.57;;
20870;SDS011;10595;51.218;3.452;2023-02-23T07:24:17;140.03;;;47.67;;
20870;SDS011;10595;51.218;3.452;2023-02-23T07:26:43;152.73;;;47.70;;
20870;SDS011;10595;51.218;3.452;2023-02-23T07:29:11;139.07;;;45.73;;
20870;SDS011;10595;51.218;3.452;2023-02-23T07:31:38;140.57;;;47.13;;
20870;SDS011;10595;51.218;3.452;2023-02-23T07:34:04;145.87;;;48.50;;
20870;SDS011;10595;51.218;3.452;2023-02-23T07:36:30;139.13;;;46.77;;
20870;SDS011;10595;51.218;3.452;2023-02-23T07:38:56;124.40;;;45.03;;
20870;SDS011;10595;51.218;3.452;2023-02-23T07:41:22;127.63;;;44.00;;
20870;SDS011;10595;51.218;3.452;2023-02-23T07:43:48;136.93;;;47.57;;
20870;SDS011;10595;51.218;3.452;2023-02-23T07:46:14;159.33;;;48.27;;
20870;SDS011;10595;51.218;3.452;2023-02-23T07:48:41;148.53;;;47.90;;
20870;SDS011;10595;51.218;3.452;2023-02-23T07:51:12;156.03;;;49.37;;
20870;SDS011;10595;51.218;3.452;2023-02-23T07:53:39;188.47;;;52.33;;
20870;SDS011;10595;51.218;3.452;2023-02-23T07:56:06;173.10;;;51.37;;
20870;SDS011;10595;51.218;3.452;2023-02-23T07:58:34;153.53;;;50.07;;
20870;SDS011;10595;51.218;3.452;2023-02-23T08:01:00;170.93;;;50.77;;
20870;SDS011;10595;51.218;3.452;2023-02-23T08:03:26;179.07;;;51.03;;
20870;SDS011;10595;51.218;3.452;2023-02-23T08:05:52;169.37;;;50.30;;
20870;SDS011;10595;51.218;3.452;2023-02-23T08:08:18;153.27;;;49.20;;
20870;SDS011;10595;51.218;3.452;2023-02-23T08:10:45;154.90;;;49.40;;
20870;SDS011;10595;51.218;3.452;2023-02-23T08:13:12;147.90;;;48.07;;
20870;SDS011;10595;51.218;3.452;2023-02-23T08:15:39;151.60;;;48.77;;
20870;SDS011;10595;51.218;3.452;2023-02-23T08:18:05;158.37;;;47.80;;
20870;SDS011;10595;51.218;3.452;2023-02-23T08:20:31;145.23;;;47.40;;
20870;SDS011;10595;51.218;3.452;2023-02-23T08:22:57;148.17;;;47.63;;
20870;SDS011;10595;51.218;3.452;2023-02-23T08:25:24;153.17;;;47.63;;
20870;SDS011;10595;51.218;3.452;2023-02-23T08:27:51;140.77;;;45.40;;
20870;SDS011;10595;51.218;3.452;2023-02-23T08:30:21;138.33;;;45.10;;
20870;SDS011;10595;51.218;3.452;2023-02-23T08:32:47;139.17;;;45.07;;
20870;SDS011;10595;51.218;3.452;2023-02-23T08:35:14;130.60;;;43.07;;
20870;SDS011;10595;51.218;3.452;2023-02-23T08:37:42;124.50;;;42.27;;
20870;SDS011;10595;51.218;3.452;2023-02-23T08:40:09;128.30;;;42.77;;
20870;SDS011;10595;51.218;3.452;2023-02-23T08:42:36;126.47;;;41.70;;
20870;SDS011;10595;51.218;3.452;2023-02-23T08:45:02;122.87;;;41.47;;
20870;SDS011;10595;51.218;3.452;2023-02-23T08:47:28;119.40;;;42.97;;
20870;SDS011;10595;51.218;3.452;2023-02-23T08:49:54;112.60;;;39.60;;
20870;SDS011;10595;51.218;3.452;2023-02-23T08:52:20;113.43;;;40.07;;
20870;SDS011;10595;51.218;3.452;2023-02-23T08:54:47;107.53;;;36.20;;
20870;SDS011;10595;51.218;3.452;2023-02-23T08:57:13;105.23;;;38.00;;
20870;SDS011;10595;51.218;3.452;2023-02-23T08:59:39;108.83;;;38.50;;
20870;SDS011;10595;51.218;3.452;2023-02-23T09:02:05;106.60;;;37.10;;
20870;SDS011;10595;51.218;3.452;2023-02-23T09:04:32;114.17;;;37.90;;
20870;SDS011;10595;51.218;3.452;2023-02-23T09:07:03;105.30;;;36.03;;
20870;SDS011;10595;51.218;3.452;2023-02-23T09:09:29;105.93;;;38.03;;
20870;SDS011;10595;51.218;3.452;2023-02-23T09:11:55;98.23;;;35.70;;
20870;SDS011;10595;51.218;3.452;2023-02-23T09:14:21;102.67;;;35.83;;
20870;SDS011;10595;51.218;3.452;2023-02-23T09:16:47;96.47;;;34.60;;
20870;SDS011;10595;51.218;3.452;2023-02-23T09:19:13;94.83;;;35.23;;
20870;SDS011;10595;51.218;3.452;2023-02-23T09:21:39;97.70;;;36.33;;
20870;SDS011;10595;51.218;3.452;2023-02-23T09:24:05;102.10;;;35.00;;
20870;SDS011;10595;51.218;3.452;2023-02-23T09:26:31;96.73;;;35.10;;
20870;SDS011;10595;51.218;3.452;2023-02-23T09:28:59;88.57;;;32.97;;
20870;SDS011;10595;51.218;3.452;2023-02-23T09:31:26;87.50;;;32.73;;
20870;SDS011;10595;51.218;3.452;2023-02-23T09:33:52;91.67;;;35.13;;
20870;SDS011;10595;51.218;3.452;2023-02-23T09:36:20;95.83;;;35.87;;
20870;SDS011;10595;51.218;3.452;2023-02-23T09:38:48;90.57;;;34.50;;
20870;SDS011;10595;51.218;3.452;2023-02-23T09:49:07;91.53;;;34.80;;
20870;SDS011;10595;51.218;3.452;2023-02-23T09:51:38;92.37;;;35.13;;
20870;SDS011;10595;51.218;3.452;2023-02-23T09:54:05;79.77;;;34.13;;
20870;SDS011;10595;51.218;3.452;2023-02-23T09:56:35;84.30;;;33.03;;
20870;SDS011;10595;51.218;3.452;2023-02-23T09:59:01;81.50;;;34.90;;
20870;SDS011;10595;51.218;3.452;2023-02-23T10:04:22;71.73;;;29.07;;
20870;SDS011;10595;51.218;3.452;2023-02-23T10:12:09;67.00;;;27.87;;
20870;SDS011;10595;51.218;3.452;2023-02-23T10:19:52;68.33;;;27.50;;
20870;SDS011;10595;51.218;3.452;2023-02-23T10:22:21;64.90;;;28.50;;
20870;SDS011;10595;51.218;3.452;2023-02-23T10:24:53;68.87;;;29.17;;
20870;SDS011;10595;51.218;3.452;2023-02-23T10:27:20;63.47;;;28.07;;
20870;SDS011;10595;51.218;3.452;2023-02-23T10:32:27;53.73;;;24.57;;
20870;SDS011;10595;51.218;3.452;2023-02-23T10:34:57;56.70;;;25.23;;
20870;SDS011;10595;51.218;3.452;2023-02-23T10:37:24;57.37;;;25.03;;
20870;SDS011;10595;51.218;3.452;2023-02-23T10:39:50;55.07;;;23.87;;
20870;SDS011;10595;51.218;3.452;2023-02-23T10:42:24;52.63;;;23.33;;
20870;SDS011;10595;51.218;3.452;2023-02-23T10:44:55;63.13;;;29.33;;
20870;SDS011;10595;51.218;3.452;2023-02-23T10:47:23;61.17;;;29.00;;
20870;SDS011;10595;51.218;3.452;2023-02-23T10:49:54;53.30;;;24.67;;
20870;SDS011;10595;51.218;3.452;2023-02-23T10:52:22;51.33;;;23.47;;
20870;SDS011;10595;51.218;3.452;2023-02-23T10:54:51;48.03;;;22.97;;
20870;SDS011;10595;51.218;3.452;2023-02-23T10:57:29;61.07;;;25.00;;
20870;SDS011;10595;51.218;3.452;2023-02-23T10:59:58;60.37;;;26.43;;
20870;SDS011;10595;51.218;3.452;2023-02-23T11:02:25;59.17;;;25.77;;
20870;SDS011;10595;51.218;3.452;2023-02-23T11:04:53;56.63;;;25.43;;
20870;SDS011;10595;51.218;3.452;2023-02-23T11:07:23;39.70;;;19.20;;
20870;SDS011;10595;51.218;3.452;2023-02-23T11:09:49;33.00;;;17.77;;
20870;SDS011;10595;51.218;3.452;2023-02-23T11:12:18;34.63;;;17.67;;
20870;SDS011;10595;51.218;3.452;2023-02-23T11:14:46;35.70;;;17.63;;
20870;SDS011;10595;51.218;3.452;2023-02-23T11:17:23;36.53;;;17.70;;
20870;SDS011;10595;51.218;3.452;2023-02-23T11:19:49;33.27;;;16.47;;
20870;SDS011;10595;51.218;3.452;2023-02-23T11:22:17;37.30;;;16.70;;
20870;SDS011;10595;51.218;3.452;2023-02-23T11:24:47;38.90;;;18.10;;
20870;SDS011;10595;51.218;3.452;2023-02-23T11:27:19;39.10;;;18.23;;
20870;SDS011;10595;51.218;3.452;2023-02-23T11:29:47;38.37;;;18.70;;
20870;SDS011;10595;51.218;3.452;2023-02-23T11:32:31;41.60;;;18.80;;
20870;SDS011;10595;51.218;3.452;2023-02-23T11:37:42;43.97;;;18.40;;
20870;SDS011;10595;51.218;3.452;2023-02-23T11:42:51;40.40;;;19.23;;
20870;SDS011;10595;51.218;3.452;2023-02-23T11:45:18;40.83;;;18.37;;
20870;SDS011;10595;51.218;3.452;2023-02-23T11:47:45;40.43;;;18.37;;
20870;SDS011;10595;51.218;3.452;2023-02-23T11:50:28;37.03;;;17.93;;
20870;SDS011;10595;51.218;3.452;2023-02-23T11:53:12;43.57;;;19.73;;
20870;SDS011;10595;51.218;3.452;2023-02-23T11:55:39;34.40;;;18.10;;
20870;SDS011;10595;51.218;3.452;2023-02-23T12:01:03;34.53;;;16.47;;
20870;SDS011;10595;51.218;3.452;2023-02-23T12:03:39;32.33;;;16.30;;
20870;SDS011;10595;51.218;3.452;2023-02-23T12:06:09;30.40;;;16.00;;
20870;SDS011;10595;51.218;3.452;2023-02-23T12:08:39;28.93;;;15.13;;
20870;SDS011;10595;51.218;3.452;2023-02-23T12:11:09;28.23;;;15.30;;
20870;SDS011;10595;51.218;3.452;2023-02-23T12:13:40;27.70;;;15.30;;
20870;SDS011;10595;51.218;3.452;2023-02-23T12:16:17;30.43;;;14.30;;
20870;SDS011;10595;51.218;3.452;2023-02-23T12:18:51;25.93;;;13.27;;
20870;SDS011;10595;51.218;3.452;2023-02-23T12:21:33;26.63;;;13.73;;
20870;SDS011;10595;51.218;3.452;2023-02-23T12:26:35;23.67;;;12.97;;
20870;SDS011;10595;51.218;3.452;2023-02-23T12:29:08;25.80;;;13.53;;
20870;SDS011;10595;51.218;3.452;2023-02-23T12:31:41;24.13;;;12.77;;
20870;SDS011;10595;51.218;3.452;2023-02-23T12:34:15;24.57;;;12.10;;
20870;SDS011;10595;51.218;3.452;2023-02-23T12:36:44;24.40;;;13.07;;
20870;SDS011;10595;51.218;3.452;2023-02-23T12:39:28;30.23;;;13.47;;
20870;SDS011;10595;51.218;3.452;2023-02-23T12:44:36;22.10;;;11.73;;
20870;SDS011;10595;51.218;3.452;2023-02-23T12:47:22;27.07;;;14.00;;
20870;SDS011;10595;51.218;3.452;2023-02-23T12:49:57;24.37;;;12.23;;
20870;SDS011;10595;51.218;3.452;2023-02-23T12:52:35;21.40;;;10.77;;
20870;SDS011;10595;51.218;3.452;2023-02-23T12:55:05;27.93;;;12.77;;
20870;SDS011;10595;51.218;3.452;2023-02-23T12:57:39;21.00;;;11.63;;
20870;SDS011;10595;51.218;3.452;2023-02-23T13:00:21;21.93;;;11.73;;
20870;SDS011;10595;51.218;3.452;2023-02-23T13:03:18;29.50;;;14.00;;
20870;SDS011;10595;51.218;3.452;2023-02-23T13:08:20;28.87;;;14.97;;
20870;SDS011;10595;51.218;3.452;2023-02-23T13:13:37;27.17;;;13.53;;
20870;SDS011;10595;51.218;3.452;2023-02-23T13:23:49;15.77;;;9.63;;
20870;SDS011;10595;51.218;3.452;2023-02-23T13:31:22;15.33;;;9.13;;
20870;SDS011;10595;51.218;3.452;2023-02-23T13:33:49;17.07;;;9.87;;
20870;SDS011;10595;51.218;3.452;2023-02-23T13:36:15;16.53;;;9.63;;
20870;SDS011;10595;51.218;3.452;2023-02-23T13:41:26;19.47;;;11.00;;
20870;SDS011;10595;51.218;3.452;2023-02-23T13:43:58;15.17;;;9.73;;
20870;SDS011;10595;51.218;3.452;2023-02-23T13:51:36;17.33;;;9.40;;
20870;SDS011;10595;51.218;3.452;2023-02-23T13:56:51;16.60;;;9.87;;
20870;SDS011;10595;51.218;3.452;2023-02-23T13:59:22;17.80;;;10.70;;
20870;SDS011;10595;51.218;3.452;2023-02-23T14:01:50;17.70;;;10.63;;
20870;SDS011;10595;51.218;3.452;2023-02-23T14:07:20;17.47;;;10.90;;
20870;SDS011;10595;51.218;3.452;2023-02-23T14:09:42;17.97;;;10.60;;
20870;SDS011;10595;51.218;3.452;2023-02-23T14:14:41;20.73;;;12.07;;
20870;SDS011;10595;51.218;3.452;2023-02-23T14:19:40;24.13;;;13.33;;
20870;SDS011;10595;51.218;3.452;2023-02-23T14:22:11;22.03;;;11.83;;
20870;SDS011;10595;51.218;3.452;2023-02-23T14:24:38;20.57;;;11.77;;
20870;SDS011;10595;51.218;3.452;2023-02-23T14:29:40;22.27;;;12.70;;
20870;SDS011;10595;51.218;3.452;2023-02-23T14:37:34;28.10;;;13.70;;
20870;SDS011;10595;51.218;3.452;2023-02-23T14:40:10;22.80;;;12.80;;
20870;SDS011;10595;51.218;3.452;2023-02-23T14:42:38;21.43;;;12.50;;
20870;SDS011;10595;51.218;3.452;2023-02-23T14:45:06;24.07;;;13.23;;
20870;SDS011;10595;51.218;3.452;2023-02-23T14:47:45;25.63;;;13.53;;
20870;SDS011;10595;51.218;3.452;2023-02-23T14:50:13;29.50;;;13.90;;
20870;SDS011;10595;51.218;3.452;2023-02-23T14:52:43;25.07;;;12.63;;
20870;SDS011;10595;51.218;3.452;2023-02-23T14:57:39;22.63;;;12.40;;
20870;SDS011;10595;51.218;3.452;2023-02-23T15:00:10;24.13;;;12.13;;
20870;SDS011;10595;51.218;3.452;2023-02-23T15:02:37;23.00;;;12.50;;
20870;SDS011;10595;51.218;3.452;2023-02-23T15:05:15;20.80;;;11.77;;
20870;SDS011;10595;51.218;3.452;2023-02-23T15:07:42;22.07;;;11.83;;
20870;SDS011;10595;51.218;3.452;2023-02-23T15:10:11;23.97;;;12.83;;
20870;SDS011;10595;51.218;3.452;2023-02-23T15:12:40;24.10;;;12.87;;
20870;SDS011;10595;51.218;3.452;2023-02-23T15:15:06;24.00;;;13.00;;
20870;SDS011;10595;51.218;3.452;2023-02-23T15:17:37;23.30;;;12.23;;
20870;SDS011;10595;51.218;3.452;2023-02-23T15:20:11;26.07;;;12.83;;
20870;SDS011;10595;51.218;3.452;2023-02-23T15:22:38;24.53;;;13.10;;
20870;SDS011;10595;51.218;3.452;2023-02-23T15:25:12;24.23;;;14.07;;
20870;SDS011;10595;51.218;3.452;2023-02-23T15:27:40;24.47;;;13.23;;
20870;SDS011;10595;51.218;3.452;2023-02-23T15:30:18;21.77;;;12.57;;
20870;SDS011;10595;51.218;3.452;2023-02-23T15:32:44;23.53;;;12.00;;
20870;SDS011;10595;51.218;3.452;2023-02-23T15:35:10;25.07;;;13.80;;
20870;SDS011;10595;51.218;3.452;2023-02-23T15:37:38;23.10;;;11.97;;
20870;SDS011;10595;51.218;3.452;2023-02-23T15:40:06;21.13;;;11.40;;
20870;SDS011;10595;51.218;3.452;2023-02-23T15:42:40;20.23;;;11.27;;
20870;SDS011;10595;51.218;3.452;2023-02-23T15:45:13;20.13;;;11.73;;
20870;SDS011;10595;51.218;3.452;2023-02-23T15:47:40;19.23;;;11.20;;
20870;SDS011;10595;51.218;3.452;2023-02-23T15:50:13;21.00;;;11.00;;
20870;SDS011;10595;51.218;3.452;2023-02-23T15:52:50;19.73;;;11.07;;
20870;SDS011;10595;51.218;3.452;2023-02-23T15:55:30;19.17;;;9.80;;
20870;SDS011;10595;51.218;3.452;2023-02-23T15:57:59;14.07;;;8.27;;
20870;SDS011;10595;51.218;3.452;2023-02-23T16:00:35;14.40;;;7.93;;
20870;SDS011;10595;51.218;3.452;2023-02-23T16:03:02;15.57;;;6.90;;
20870;SDS011;10595;51.218;3.452;2023-02-23T16:05:29;10.90;;;6.33;;
20870;SDS011;10595;51.218;3.452;2023-02-23T16:08:21;13.47;;;5.80;;
20870;SDS011;10595;51.218;3.452;2023-02-23T16:10:48;9.97;;;5.67;;
20870;SDS011;10595;51.218;3.452;2023-02-23T16:13:16;9.97;;;5.03;;
20870;SDS011;10595;51.218;3.452;2023-02-23T16:15:42;12.27;;;5.20;;
20870;SDS011;10595;51.218;3.452;2023-02-23T16:18:12;10.53;;;5.20;;
20870;SDS011;10595;51.218;3.452;2023-02-23T16:20:47;9.77;;;4.67;;
20870;SDS011;10595;51.218;3.452;2023-02-23T16:25:54;13.97;;;5.00;;
20870;SDS011;10595;51.218;3.452;2023-02-23T16:28:23;15.63;;;5.07;;
20870;SDS011;10595;51.218;3.452;2023-02-23T16:30:56;11.43;;;4.90;;
20870;SDS011;10595;51.218;3.452;2023-02-23T16:33:23;18.90;;;5.73;;
20870;SDS011;10595;51.218;3.452;2023-02-23T16:36:06;16.17;;;6.23;;
20870;SDS011;10595;51.218;3.452;2023-02-23T16:38:36;22.07;;;5.97;;
20870;SDS011;10595;51.218;3.452;2023-02-23T16:41:03;16.67;;;5.90;;
20870;SDS011;10595;51.218;3.452;2023-02-23T16:43:29;17.13;;;5.70;;
20870;SDS011;10595;51.218;3.452;2023-02-23T16:45:56;20.93;;;5.77;;